Time;durP1;ratioP1;P1;durP2;ratioP2;P2;SDS_P1;SDS_P2;PMS_P1;PMS_P2;Temp;Humidity;BMP_temperature;BMP_pressure;BME280_temperature;BME280_humidity;BME280_pressure;Samples;Min_cycle;Max_cycle;Signal;HPM_P1;HPM_P2
2021/11/10 00:08:46;;;;;;;0.20;0.10;;;15.70;99.90;;;;;;20507790;28;20225;-77
2021/11/10 00:18:52;;;;;;;0.20;0.10;;;15.60;99.90;;;;;;20507466;29;20197;-76
2021/11/10 00:28:55;;;;;;;0.87;0.87;;;15.60;99.90;;;;;;20505440;29;20307;-77
2021/11/10 00:39:00;;;;;;;0.20;0.10;;;15.60;99.90;;;;;;20442826;29;20253;-78
2021/11/10 00:49:04;;;;;;;0.20;0.10;;;15.80;99.90;;;;;;20424752;29;20699;-76
2021/11/10 00:59:09;;;;;;;0.20;0.10;;;15.70;99.90;;;;;;20425186;29;20198;-75
2021/11/10 01:09:16;;;;;;;0.20;0.10;;;15.80;99.90;;;;;;20441985;29;20220;-80
2021/11/10 01:19:21;;;;;;;0.20;0.10;;;15.90;99.90;;;;;;20453153;29;20197;-77
2021/11/10 01:29:26;;;;;;;0.20;0.10;;;15.70;99.90;;;;;;20423230;29;20687;-79
2021/11/10 01:39:31;;;;;;;0.20;0.10;;;15.70;99.90;;;;;;20469628;28;20686;-76
2021/11/10 01:49:36;;;;;;;0.20;0.10;;;15.70;99.90;;;;;;20500673;29;20686;-76
2021/11/10 01:59:44;;;;;;;0.20;0.10;;;15.90;99.90;;;;;;20500346;29;20247;-74
2021/11/10 02:09:49;;;;;;;0.20;0.10;;;15.90;99.90;;;;;;20498423;29;20314;-75
2021/11/10 02:19:54;;;;;;;0.20;0.20;;;16.00;99.90;;;;;;20481482;29;20264;-78
2021/11/10 02:29:59;;;;;;;0.20;0.10;;;15.90;99.90;;;;;;20497726;29;20311;-76
2021/11/10 02:40:03;;;;;;;1.50;0.67;;;15.90;99.90;;;;;;20426676;29;20659;-73
2021/11/10 02:50:12;;;;;;;0.20;0.10;;;15.80;99.90;;;;;;20417564;29;20315;-76
2021/11/10 03:00:17;;;;;;;0.20;0.10;;;15.80;99.90;;;;;;20437436;23;20327;-74
2021/11/10 03:10:22;;;;;;;0.20;0.10;;;15.70;99.90;;;;;;20495305;29;20220;-73
2021/11/10 03:20:27;;;;;;;0.20;0.10;;;15.60;99.90;;;;;;20493135;29;20556;-74
2021/11/10 03:30:32;;;;;;;0.40;0.40;;;15.50;99.90;;;;;;20495022;29;20720;-72
2021/11/10 03:40:36;;;;;;;0.20;0.10;;;15.50;99.90;;;;;;20492758;28;20201;-74
2021/11/10 03:50:41;;;;;;;0.20;0.10;;;15.60;99.90;;;;;;20508554;28;20247;-73
2021/11/10 04:00:44;;;;;;;0.20;0.10;;;15.60;99.90;;;;;;20507934;28;20237;-74
2021/11/10 04:10:50;;;;;;;0.20;0.10;;;15.60;99.90;;;;;;20505878;28;20251;-74
2021/11/10 04:20:54;;;;;;;0.20;0.10;;;15.70;99.90;;;;;;20488237;28;20321;-74
2021/11/10 04:30:59;;;;;;;0.20;0.10;;;15.70;99.90;;;;;;20487835;28;20332;-74
2021/11/10 04:41:04;;;;;;;0.20;0.10;;;15.40;99.90;;;;;;20582882;28;20563;-73
2021/11/10 04:51:14;;;;;;;0.20;0.10;;;15.30;99.90;;;;;;20565163;28;20311;-73
2021/11/10 05:01:24;;;;;;;0.20;0.10;;;15.10;99.90;;;;;;20574730;23;20232;-79
2021/11/10 05:11:29;;;;;;;2.63;0.73;;;15.20;99.90;;;;;;20503348;29;20216;-80
2021/11/10 05:21:33;;;;;;;0.20;0.10;;;15.20;99.90;;;;;;20502825;29;20288;-78
2021/11/10 05:31:38;;;;;;;0.20;0.00;;;15.30;99.90;;;;;;20500447;29;20224;-75
2021/11/10 05:41:42;;;;;;;0.20;0.10;;;15.40;99.90;;;;;;20483504;29;20201;-79
2021/11/10 05:51:47;;;;;;;0.20;0.10;;;15.70;99.90;;;;;;20499496;29;20311;-79
2021/11/10 06:01:51;;;;;;;0.20;0.10;;;15.80;99.90;;;;;;20500418;29;20235;-77
2021/11/10 06:11:56;;;;;;;0.20;0.10;;;15.70;99.90;;;;;;20497975;28;20788;-79
2021/11/10 06:21:59;;;;;;;0.20;0.10;;;15.50;99.90;;;;;;20497688;29;20232;-73
2021/11/10 06:32:05;;;;;;;0.20;0.10;;;15.50;99.90;;;;;;20480270;29;20224;-75
2021/11/10 06:42:09;;;;;;;0.20;0.10;;;15.50;99.90;;;;;;20495544;29;20224;-76
2021/11/10 06:52:14;;;;;;;0.20;0.10;;;15.60;99.90;;;;;;20477529;29;20608;-78
2021/11/10 07:02:18;;;;;;;0.20;0.10;;;15.80;99.90;;;;;;20492126;29;20255;-80
2021/11/10 07:12:23;;;;;;;0.20;0.10;;;15.40;99.90;;;;;;20530418;29;20674;-78
2021/11/10 07:22:27;;;;;;;0.63;0.63;;;15.40;99.90;;;;;;20509065;28;20208;-76
2021/11/10 07:32:32;;;;;;;0.20;0.00;;;15.80;99.90;;;;;;20510021;29;20301;-79
2021/11/10 07:42:39;;;;;;;0.20;0.10;;;15.80;99.90;;;;;;20509367;29;20201;-77
2021/11/10 07:52:45;;;;;;;0.20;0.10;;;15.80;99.90;;;;;;20512855;29;20315;-78
2021/11/10 08:02:48;;;;;;;0.20;0.10;;;15.90;99.90;;;;;;20489224;28;20320;-80
2021/11/10 08:12:53;;;;;;;0.20;0.10;;;15.90;99.90;;;;;;20506194;29;20681;-81
2021/11/10 08:23:00;;;;;;;0.20;0.10;;;16.10;99.90;;;;;;20487221;29;20257;-78
2021/11/10 08:33:06;;;;;;;0.30;0.30;;;16.50;99.90;;;;;;20478893;28;20656;-79
2021/11/10 08:43:11;;;;;;;0.20;0.10;;;16.60;99.90;;;;;;20425093;29;20236;-76
2021/11/10 08:53:19;;;;;;;0.20;0.10;;;16.90;99.90;;;;;;20486958;29;20745;-73
2021/11/10 09:03:24;;;;;;;0.20;0.10;;;16.70;99.90;;;;;;20515556;28;20232;-76
2021/11/10 09:13:29;;;;;;;0.20;0.10;;;14.90;99.90;;;;;;20581323;28;20199;-78
2021/11/10 09:23:33;;;;;;;0.20;0.00;;;15.20;99.90;;;;;;20581612;28;20231;-78
2021/11/10 09:33:41;;;;;;;0.20;0.10;;;15.60;99.90;;;;;;20579947;28;20208;-77
2021/11/10 09:43:44;;;;;;;0.20;0.10;;;16.10;99.90;;;;;;20560128;28;20224;-80
2021/11/10 09:53:59;;;;;;;0.20;0.10;;;16.50;99.90;;;;;;20538827;28;20294;-76
2021/11/10 10:04:03;;;;;;;0.20;0.10;;;16.70;99.90;;;;;;20575249;28;20630;-78
2021/11/10 10:14:08;;;;;;;0.40;0.40;;;16.70;99.90;;;;;;20490973;28;20201;-76
2021/11/10 10:24:15;;;;;;;0.20;0.10;;;16.90;99.90;;;;;;20494559;29;20620;-78
2021/11/10 10:34:20;;;;;;;0.20;0.10;;;16.90;99.90;;;;;;20494489;29;20192;-77
2021/11/10 10:44:27;;;;;;;0.20;0.10;;;16.90;99.90;;;;;;20522713;28;20267;-76
2021/11/10 10:54:32;;;;;;;0.20;0.10;;;17.10;99.90;;;;;;20563723;28;20728;-78
2021/11/10 11:04:43;;;;;;;0.20;0.10;;;17.10;99.90;;;;;;20572471;28;20292;-74
2021/11/10 11:14:53;;;;;;;0.20;0.10;;;17.10;99.90;;;;;;20573129;28;20286;-80
2021/11/10 11:25:11;;;;;;;0.20;0.10;;;17.00;99.90;;;;;;20605898;28;20239;-78
2021/11/10 11:35:25;;;;;;;0.20;0.00;;;16.10;99.90;;;;;;20666503;28;20202;-77
2021/11/10 11:45:32;;;;;;;0.20;0.10;;;15.50;99.90;;;;;;20612695;28;20220;-78
2021/11/10 11:55:41;;;;;;;0.20;0.00;;;15.10;99.90;;;;;;20588615;28;20232;-79
2021/11/10 12:05:45;;;;;;;0.20;0.10;;;14.90;99.90;;;;;;20586922;28;20255;-76
2021/11/10 12:16:13;;;;;;;0.20;0.07;;;15.00;99.90;;;;;;20586406;28;20600;-74
2021/11/10 12:26:18;;;;;;;0.20;0.00;;;14.90;99.90;;;;;;20585437;28;20243;-76
2021/11/10 12:36:52;;;;;;;0.20;0.00;;;14.60;99.90;;;;;;20584346;28;20223;-77
2021/11/10 12:46:56;;;;;;;0.20;0.00;;;14.50;99.90;;;;;;20516796;28;20263;-75
2021/11/10 12:57:01;;;;;;;0.20;0.03;;;14.40;99.90;;;;;;20502681;29;20205;-74
2021/11/10 13:07:10;;;;;;;0.20;0.00;;;14.40;99.90;;;;;;20500895;29;20256;-74
2021/11/10 13:17:18;;;;;;;0.20;0.00;;;14.40;99.90;;;;;;20498076;28;20205;-75
2021/11/10 13:27:30;;;;;;;0.20;0.00;;;14.60;99.90;;;;;;20497254;29;20642;-74
2021/11/10 13:37:42;;;;;;;0.20;0.00;;;14.60;99.90;;;;;;20474387;28;20196;-77
2021/11/10 13:47:55;;;;;;;0.20;0.00;;;14.70;99.90;;;;;;20496625;29;20303;-77
2021/11/10 13:58:05;;;;;;;0.20;0.00;;;14.80;99.90;;;;;;20500726;29;20204;-78
2021/11/10 14:08:09;;;;;;;0.20;0.00;;;14.60;99.90;;;;;;20531120;28;20267;-80
2021/11/10 14:18:16;;;;;;;0.20;0.00;;;14.50;99.90;;;;;;20577583;28;20201;-79
2021/11/10 14:28:24;;;;;;;0.20;0.00;;;14.60;99.90;;;;;;20578289;28;20271;-79
2021/11/10 14:38:37;;;;;;;0.20;0.10;;;14.60;99.90;;;;;;20607313;28;20195;-76
2021/11/10 14:48:41;;;;;;;0.20;0.00;;;14.40;99.90;;;;;;20585746;28;20658;-74
2021/11/10 14:58:58;;;;;;;0.20;0.00;;;14.40;99.90;;;;;;20557791;28;20199;-75
2021/11/10 15:09:23;;;;;;;0.20;0.00;;;14.20;99.90;;;;;;20557043;28;20729;-75
2021/11/10 15:19:28;;;;;;;0.20;0.00;;;14.30;99.90;;;;;;20573502;28;20555;-74
2021/11/10 15:29:32;;;;;;;0.20;0.00;;;14.30;99.90;;;;;;20572595;28;20228;-73
2021/11/10 15:39:38;;;;;;;0.20;0.00;;;14.30;99.90;;;;;;20576251;28;20207;-76
2021/11/10 15:49:42;;;;;;;0.20;0.00;;;14.30;99.90;;;;;;20515368;28;20220;-76
2021/11/10 15:59:47;;;;;;;0.20;0.00;;;14.20;99.90;;;;;;20489141;29;20591;-74
2021/11/10 16:09:52;;;;;;;0.20;0.00;;;14.70;99.90;;;;;;20505205;28;20319;-72
2021/11/10 16:19:57;;;;;;;0.20;0.10;;;15.00;99.90;;;;;;20505514;29;20219;-78
2021/11/10 16:30:02;;;;;;;0.20;0.00;;;15.10;99.90;;;;;;20488164;29;20591;-78
2021/11/10 16:40:09;;;;;;;0.20;0.03;;;15.20;99.90;;;;;;20504798;29;20197;-79
2021/11/10 16:50:13;;;;;;;0.20;0.10;;;15.10;99.90;;;;;;20579381;28;20245;-78
2021/11/10 17:00:20;;;;;;;0.20;0.00;;;15.10;99.90;;;;;;20584000;28;20224;-80
2021/11/10 17:10:24;;;;;;;0.20;0.10;;;15.10;99.90;;;;;;20566293;28;20227;-82
2021/11/10 17:20:29;;;;;;;0.20;0.10;;;15.20;99.90;;;;;;20564827;28;20295;-82
2021/11/10 17:30:33;;;;;;;0.20;0.00;;;14.90;99.90;;;;;;20576377;28;20228;-74
2021/11/10 17:40:42;;;;;;;0.20;0.10;;;14.90;99.90;;;;;;20579681;28;21111;-75
2021/11/10 17:50:46;;;;;;;0.20;0.10;;;15.00;99.90;;;;;;20561548;28;20641;-83
2021/11/10 18:00:51;;;;;;;0.20;0.07;;;15.10;99.90;;;;;;20577565;28;20247;-78
2021/11/10 18:10:56;;;;;;;0.20;0.10;;;15.20;99.90;;;;;;20578310;28;20224;-80
2021/11/10 18:21:02;;;;;;;0.20;0.10;;;15.10;99.90;;;;;;20571385;28;20493;-77
2021/11/10 18:31:05;;;;;;;0.20;0.10;;;15.20;99.90;;;;;;20502423;29;20702;-81
2021/11/10 18:41:11;;;;;;;0.20;0.10;;;15.30;99.90;;;;;;20571475;28;20208;-78
2021/11/10 18:51:15;;;;;;;0.20;0.10;;;15.40;99.90;;;;;;20574276;28;20310;-79
2021/11/10 19:01:24;;;;;;;0.20;0.00;;;15.20;99.90;;;;;;20529748;28;1234179;-78
2021/11/10 19:11:43;;;;;;;0.20;0.00;;;15.20;99.90;;;;;;20575990;28;20220;-78
2021/11/10 19:21:49;;;;;;;0.20;0.10;;;15.30;99.90;;;;;;20596458;28;20234;-76
2021/11/10 19:31:53;;;;;;;0.20;0.10;;;15.50;99.90;;;;;;20589608;28;20690;-77
2021/11/10 19:41:58;;;;;;;0.20;0.00;;;15.50;99.90;;;;;;20586746;28;20196;-79
2021/11/10 19:52:01;;;;;;;0.47;0.47;;;15.50;99.90;;;;;;20586772;28;20263;-78
2021/11/10 20:02:06;;;;;;;0.20;0.10;;;15.50;99.90;;;;;;20585162;28;20315;-77
2021/11/10 20:12:10;;;;;;;0.20;0.10;;;15.50;99.90;;;;;;20585693;28;20270;-80
2021/11/10 20:22:21;;;;;;;0.20;0.10;;;15.70;99.90;;;;;;20573675;28;20271;-80
2021/11/10 20:32:25;;;;;;;0.20;0.10;;;15.60;99.90;;;;;;20582440;28;20242;-80
2021/11/10 20:42:30;;;;;;;0.20;0.10;;;15.50;99.90;;;;;;20580602;28;20295;-78
2021/11/10 20:52:34;;;;;;;0.20;0.00;;;15.50;99.90;;;;;;20596930;28;20252;-77
2021/11/10 21:02:40;;;;;;;0.20;0.03;;;15.50;99.90;;;;;;20584346;28;20255;-72
2021/11/10 21:12:44;;;;;;;0.23;0.13;;;15.60;99.90;;;;;;20597127;28;20247;-79
2021/11/10 21:22:50;;;;;;;0.20;0.10;;;15.50;99.90;;;;;;20586955;28;20573;-78
2021/11/10 21:32:55;;;;;;;0.20;0.10;;;15.50;99.90;;;;;;20591747;28;20303;-76
2021/11/10 21:43:07;;;;;;;0.20;0.10;;;15.50;99.90;;;;;;20579427;28;20220;-73
2021/11/10 21:53:11;;;;;;;0.20;0.10;;;15.60;99.90;;;;;;20576178;28;20587;-76
2021/11/10 22:03:16;;;;;;;0.20;0.10;;;15.70;99.90;;;;;;20588823;28;20216;-78
2021/11/10 22:13:20;;;;;;;0.20;0.00;;;15.50;99.90;;;;;;20562065;28;20279;-76
2021/11/10 22:23:25;;;;;;;0.20;0.10;;;15.40;99.90;;;;;;20576996;28;20192;-76
2021/11/10 22:33:29;;;;;;;0.20;0.00;;;15.50;99.90;;;;;;20574077;28;20722;-80
2021/11/10 22:43:34;;;;;;;0.20;0.00;;;15.80;99.90;;;;;;20574798;28;20188;-80
2021/11/10 22:53:38;;;;;;;0.20;0.10;;;15.80;99.90;;;;;;20573334;28;20713;-80
2021/11/10 23:03:46;;;;;;;0.20;0.10;;;16.00;99.90;;;;;;20554650;28;20215;-81
2021/11/10 23:13:49;;;;;;;0.20;0.10;;;15.90;99.90;;;;;;20573786;28;20247;-78
2021/11/10 23:23:56;;;;;;;0.20;0.10;;;15.70;99.90;;;;;;20573888;28;20321;-74
2021/11/10 23:34:00;;;;;;;0.20;0.03;;;15.70;99.90;;;;;;20570296;28;20319;-72
2021/11/10 23:44:05;;;;;;;0.20;0.20;;;15.80;99.90;;;;;;20555749;28;20239;-77
2021/11/10 23:54:08;;;;;;;0.20;0.10;;;15.90;99.90;;;;;;20556399;28;20615;-78
